Terminal Aerodrome Forecast
Issued by NWS

Home | Current Version | Previous Version | Text Only | Print | Product List | Glossary On
Versions: 1 2 3 4 5 6 7 8 9 10 11 12 13 14 15
000
FTUS41 KBGM 040553
TAFELM
TAF
KELM 040553Z 0406/0506 VRB03KT P6SM OVC050
     FM040700 VRB03KT P6SM -SHRA SCT025 OVC035
      TEMPO 0407/0409 4SM -SHRA BR OVC025
     FM040900 VRB03KT P6SM -SHRA SCT015 OVC025
      TEMPO 0409/0413 3SM -SHRA BR OVC015
     FM041500 20005KT P6SM BKN040
     FM050000 VRB03KT P6SM FEW045=

USA.gov is the U.S. government's official web portal to all federal, state and local government web resources and services.